Amherst, Wisconsin
Current Conditions -  °F | °C
As of 3:35 PM on Saturday 25 Oct 2014 (Local Time) from KSTE Reporting Station
Clear Clear  
Wind Chill: 59°   Ceiling: Unl
Heat Index: 59°   Visibility: 10mi
Dew Point: 30°   Wind: 17mph
Humidity: 33%   Direction: 280°W
Pressure: 29.9"   Gusts: 22mph
Location:  44.45°N, 89.28°W
Report Text: KSTE 252035Z AUTO 28015G19KT 10SM CLR 15/M01 A2990 RMK AO2 T01501012
Loading
Personal Weather Stations






























Interactive Weather Map
Tropical Storm Tracking
New forecast layout! Learn more

10-Day Weather Forecast

Advertisements
Track Severe Weather on mobile